OMFJ/FJR METAR and TAF weather

Enter ICAO airport designator
Station Type Date Time Source
OMFJ METAR 2022/01/29 11:00 UTC NOAA

OMFJ 291100Z 30014KT 7000 NSC 29/09 Q1016 A3002


Station Type Date Time Source
OMFJ Decoded METAR 2022/01/29 11:00 UTC NOAA

Fujairah, United Arab Emirates (OMFJ) 25-06N 056-20E 28M
Jan 29, 2022 - 06:00 AM EST / 2022.01.29 1100 UTC
Wind: from the WNW (300 degrees) at 16 MPH (14 KT):0
Visibility: 4 mile(s):0
Temperature: 84 F (29 C)
Dew Point: 48 F (9 C)
Relative Humidity: 28%
Pressure (altimeter): 30.02 in. Hg (1016 hPa)
ob: OMFJ 291100Z 30014KT 7000 NSC 29/09 Q1016 A3002
cycle: 11

Station Type Date Time Source
OMFJ TAF 2022/01/28 18:12 UTC NOAA

TAF TAF OMFJ 281700Z 2818/2924 29010KT 8000 NSC
TEMPO 2906/2914 09010KT PROB30
TEMPO 2908/2920 30015G25KT 4000 BLDU

Example: see airport list